Terminal Aerodrome Forecast
Issued by NWS Wichita, KS

Home | Current Version | Previous Version | Graphics & Text | Print | Product List | Glossary On
Versions: 1 2 3 4 5 6 7 8 9 10 11 12
713
FTUS43 KICT 182324
TAFICT
TAF
KICT 182324Z 1900/1924 34012KT P6SM SKC
     FM190100 33006KT P6SM SKC
     FM191500 25004KT P6SM SKC
     FM191800 22012KT P6SM SKC=

USA.gov is the U.S. government's official web portal to all federal, state and local government web resources and services.